Time;durP1;ratioP1;P1;durP2;ratioP2;P2;SDS_P1;SDS_P2;PMS_P1;PMS_P2;Temp;Humidity;BMP_temperature;BMP_pressure;BME280_temperature;BME280_humidity;BME280_pressure;Samples;Min_cycle;Max_cycle;Signal;HPM_P1;HPM_P2
2022/05/03 00:00:09;;;;;;;16.92;12.00;;;;;;;7.46;91.99;97178.94;5040595;28;20041;-66
2022/05/03 00:02:54;;;;;;;15.57;11.82;;;;;;;7.51;90.31;97187.13;5043720;28;20033;-66
2022/05/03 00:05:47;;;;;;;14.43;11.27;;;;;;;7.41;90.65;97190.41;5045954;28;20048;-66
2022/05/03 00:08:26;;;;;;;16.83;11.18;;;;;;;7.19;89.28;97186.69;5046229;28;20056;-66
2022/05/03 00:11:26;;;;;;;13.38;11.07;;;;;;;6.88;91.34;97187.63;5046139;28;20057;-66
2022/05/03 00:14:16;;;;;;;18.88;12.73;;;;;;;6.70;92.10;97180.47;5043905;28;20120;-66
2022/05/03 00:16:44;;;;;;;16.30;12.13;;;;;;;6.61;93.08;97176.47;5046448;28;20049;-66
2022/05/03 00:19:11;;;;;;;16.17;12.85;;;;;;;6.64;93.43;97170.63;5046615;28;20078;-66
2022/05/03 00:21:38;;;;;;;17.23;13.45;;;;;;;6.64;93.45;97170.63;5045187;28;20041;-66
2022/05/03 00:24:06;;;;;;;16.70;12.88;;;;;;;6.67;93.88;97172.03;5047167;28;20044;-66
2022/05/03 00:26:33;;;;;;;20.70;13.18;;;;;;;6.75;94.00;97177.88;5046192;28;20052;-66
2022/05/03 00:29:01;;;;;;;16.50;12.90;;;;;;;6.84;94.28;97175.69;5045428;28;20049;-66
2022/05/03 00:31:28;;;;;;;15.73;13.23;;;;;;;6.73;92.68;97179.16;5045949;28;20045;-66
2022/05/03 00:33:56;;;;;;;16.90;12.07;;;;;;;6.56;93.27;97177.16;5046561;28;20048;-66
2022/05/03 00:36:24;;;;;;;19.67;13.57;;;;;;;6.63;94.01;97182.41;5045759;28;20052;-66
2022/05/03 00:38:51;;;;;;;18.13;13.13;;;;;;;6.68;93.59;97173.66;5045930;28;20247;-66
2022/05/03 00:41:33;;;;;;;16.73;12.93;;;;;;;6.72;93.52;97172.16;5045393;28;20132;-66
2022/05/03 00:47:14;;;;;;;15.90;12.73;;;;;;;6.84;93.66;97164.91;5041591;28;20051;-66
2022/05/03 00:49:41;;;;;;;;;;;;;;;6.88;93.57;97176.84;5044392;28;20620;-66
2022/05/03 00:52:29;;;;;;;15.80;11.98;;;;;;;6.86;93.16;97173.56;5044196;28;19929;-66
2022/05/03 00:55:13;;;;;;;16.05;11.90;;;;;;;6.87;94.04;97169.84;5046326;28;20051;-66
2022/05/03 00:57:59;;;;;;;18.67;12.90;;;;;;;6.81;93.63;97169.97;5044052;28;20040;-66
2022/05/03 01:00:28;;;;;;;16.95;14.18;;;;;;;6.64;93.92;97166.06;5054377;28;20040;-66
2022/05/03 01:03:17;;;;;;;17.23;13.05;;;;;;;6.58;94.20;97163.47;5036418;28;20090;-66
2022/05/03 01:06:17;;;;;;;16.60;12.00;;;;;;;6.62;93.41;97167.34;5052611;28;20102;-66
2022/05/03 01:09:06;;;;;;;14.85;10.98;;;;;;;6.69;92.17;97160.00;5025694;28;20040;-66
2022/05/03 01:11:53;;;;;;;16.17;12.07;;;;;;;6.63;92.18;97172.50;5045014;28;20033;-66
2022/05/03 01:14:44;;;;;;;17.98;12.75;;;;;;;6.53;93.16;97172.25;5053542;28;20043;-66
2022/05/03 01:17:24;;;;;;;18.98;13.02;;;;;;;6.46;93.79;97174.22;5044384;28;20049;-66
2022/05/03 01:20:00;;;;;;;17.42;12.93;;;;;;;6.34;93.96;97174.19;5045419;28;20399;-66
2022/05/03 01:22:38;;;;;;;17.40;12.95;;;;;;;6.29;93.83;97166.78;5044372;28;20037;-66
2022/05/03 01:25:38;;;;;;;18.95;12.20;;;;;;;6.33;93.79;97175.22;5034162;28;20052;-66
2022/05/03 01:28:43;;;;;;;19.00;14.25;;;;;;;6.21;94.29;97170.63;5043915;28;20052;-66
2022/05/03 01:31:11;;;;;;;16.45;12.65;;;;;;;6.27;93.54;97170.78;5050439;28;20044;-66
2022/05/03 01:33:40;;;;;;;14.15;12.07;;;;;;;6.30;92.87;97168.44;5039108;28;20040;-66
2022/05/03 01:36:08;;;;;;;15.23;12.52;;;;;;;6.16;93.39;97165.09;5043846;28;20048;-66
2022/05/03 01:38:49;;;;;;;16.23;12.00;;;;;;;6.14;93.68;97167.22;5045299;28;20127;-66
2022/05/03 01:41:30;;;;;;;16.85;12.90;;;;;;;6.07;94.44;97172.69;5026942;28;20588;-66
2022/05/03 01:44:35;;;;;;;16.10;12.88;;;;;;;6.10;94.20;97171.41;5043379;28;20041;-66
2022/05/03 01:47:41;;;;;;;18.55;12.57;;;;;;;6.09;93.90;97172.47;5043795;28;20053;-66
2022/05/03 01:50:32;;;;;;;15.35;12.98;;;;;;;6.06;94.11;97167.53;5049824;28;20126;-66
2022/05/03 01:53:10;;;;;;;17.80;12.48;;;;;;;6.03;94.33;97174.19;5044333;28;20052;-67
2022/05/03 01:55:39;;;;;;;17.40;12.15;;;;;;;5.94;94.07;97170.16;5044858;28;20049;-66
2022/05/03 01:58:35;;;;;;;15.90;12.68;;;;;;;5.78;94.49;97169.72;5043725;28;20052;-66
2022/05/03 02:01:35;;;;;;;18.75;12.15;;;;;;;5.88;94.11;97166.50;5033935;28;20029;-66
2022/05/03 02:04:30;;;;;;;16.27;11.20;;;;;;;5.91;93.92;97159.84;5040653;28;20447;-66
2022/05/03 02:07:09;;;;;;;16.40;11.60;;;;;;;6.01;93.73;97167.38;5041983;28;20122;-66
2022/05/03 02:09:57;;;;;;;16.25;11.52;;;;;;;5.97;93.72;97172.41;5039362;28;20044;-66
2022/05/03 02:12:24;;;;;;;13.98;10.63;;;;;;;5.98;93.23;97168.66;5044019;28;20114;-65
2022/05/03 02:15:06;;;;;;;19.08;13.68;;;;;;;5.97;93.71;97167.81;5045156;28;20176;-66
2022/05/03 02:17:52;;;;;;;17.38;12.18;;;;;;;5.85;93.90;97166.94;5043578;28;20057;-66
2022/05/03 02:20:42;;;;;;;15.13;11.57;;;;;;;5.84;94.25;97163.47;5044352;28;20408;-66
2022/05/03 02:23:29;;;;;;;19.08;14.57;;;;;;;5.79;94.98;97157.91;5044015;28;20566;-66
2022/05/03 02:26:04;;;;;;;16.75;13.05;;;;;;;5.88;95.13;97173.72;5044229;28;20699;-66
2022/05/03 02:29:14;;;;;;;18.10;13.38;;;;;;;5.85;95.18;97169.63;5043976;28;20045;-66
2022/05/03 02:31:47;;;;;;;16.40;12.43;;;;;;;5.91;94.76;97157.16;5045484;28;20143;-66
2022/05/03 02:34:24;;;;;;;16.67;12.18;;;;;;;5.83;95.24;97159.09;5044533;28;20091;-66
2022/05/03 02:36:56;;;;;;;16.50;12.38;;;;;;;5.81;94.98;97157.69;5037902;28;20165;-66
2022/05/03 02:39:28;;;;;;;18.85;15.48;;;;;;;5.75;95.49;97154.03;5048598;28;20053;-66
2022/05/03 02:41:58;;;;;;;20.10;14.80;;;;;;;5.68;95.69;97154.13;5046539;28;20041;-66
2022/05/03 02:44:29;;;;;;;21.08;14.55;;;;;;;5.70;95.60;97154.72;5048612;28;20052;-66
2022/05/03 02:47:04;;;;;;;20.00;14.63;;;;;;;5.83;96.27;97151.03;5047862;28;20471;-65
2022/05/03 02:49:36;;;;;;;21.38;14.65;;;;;;;5.94;95.78;97154.81;5047662;28;20041;-66
2022/05/03 02:52:33;;;;;;;21.10;14.77;;;;;;;5.95;95.86;97152.97;5043330;28;20036;-66
2022/05/03 02:55:17;;;;;;;18.73;13.90;;;;;;;6.08;95.28;97152.81;5047145;28;20140;-66
2022/05/03 02:58:03;;;;;;;18.70;14.27;;;;;;;6.10;94.92;97156.09;5047089;28;20052;-66
2022/05/03 03:03:47;;;;;;;17.75;13.10;;;;;;;6.27;94.93;97155.47;5046290;28;20745;-66
2022/05/03 03:06:22;;;;;;;17.42;12.40;;;;;;;6.31;93.92;97156.66;5033628;28;20047;-66
2022/05/03 03:08:54;;;;;;;15.65;11.48;;;;;;;6.29;93.48;97147.97;5058488;28;20049;-66
2022/05/03 03:11:30;;;;;;;18.30;13.55;;;;;;;6.15;94.13;97149.22;5046549;28;20052;-66
2022/05/03 03:14:07;;;;;;;16.85;12.95;;;;;;;6.14;94.60;97150.25;5047981;28;20115;-67
2022/05/03 03:16:39;;;;;;;17.65;12.23;;;;;;;6.24;94.25;97153.22;5047763;28;20047;-66
2022/05/03 03:19:33;;;;;;;16.70;11.80;;;;;;;6.31;93.87;97145.06;5046143;28;20673;-65
2022/05/03 03:22:01;;;;;;;16.35;12.02;;;;;;;6.34;93.52;97147.31;5045118;28;20064;-66
2022/05/03 03:24:31;;;;;;;17.92;11.45;;;;;;;6.37;93.65;97139.59;5047264;28;20044;-66
2022/05/03 03:27:00;;;;;;;17.60;12.20;;;;;;;6.34;93.64;97147.31;5047372;28;20094;-66
2022/05/03 03:29:29;;;;;;;17.67;12.45;;;;;;;6.30;93.67;97144.22;5046487;28;20132;-66
2022/05/03 03:31:58;;;;;;;15.77;12.10;;;;;;;6.30;93.55;97148.81;5047147;28;20063;-66
2022/05/03 03:34:27;;;;;;;18.27;12.45;;;;;;;6.26;92.96;97153.00;5047092;28;20048;-66
2022/05/03 03:37:01;;;;;;;19.13;13.18;;;;;;;6.08;93.75;97150.13;5046628;28;20053;-66
2022/05/03 03:39:30;;;;;;;19.95;14.25;;;;;;;5.92;95.13;97151.56;5046739;28;20060;-66
2022/05/03 03:42:01;;;;;;;18.40;14.38;;;;;;;5.93;95.10;97149.72;5045970;28;20309;-66
2022/05/03 03:44:29;;;;;;;20.15;14.98;;;;;;;5.92;95.00;97151.56;5047259;28;20041;-66
2022/05/03 03:46:57;;;;;;;21.85;15.15;;;;;;;5.90;95.33;97147.47;5047242;28;20060;-66
2022/05/03 03:49:24;;;;;;;18.77;13.95;;;;;;;5.83;95.00;97150.25;5046025;28;20943;-66
2022/05/03 03:51:51;;;;;;;19.88;14.13;;;;;;;5.86;95.28;97147.06;5046754;28;20052;-66
2022/05/03 03:54:19;;;;;;;18.98;13.65;;;;;;;5.98;94.56;97152.53;5045608;28;20041;-66
2022/05/03 03:56:47;;;;;;;18.20;13.77;;;;;;;6.06;94.52;97146.88;5039058;28;20092;-66
2022/05/03 03:59:14;;;;;;;18.60;12.88;;;;;;;6.07;94.58;97147.66;5053880;28;20102;-66
2022/05/03 04:01:41;;;;;;;18.38;13.65;;;;;;;6.08;94.37;97152.00;5044038;28;20078;-66
2022/05/03 04:04:08;;;;;;;18.58;13.55;;;;;;;5.97;94.67;97153.59;5043963;28;20037;-66
2022/05/03 04:06:35;;;;;;;19.75;13.93;;;;;;;5.89;94.87;97152.00;5046531;28;20051;-67
2022/05/03 04:09:02;;;;;;;19.23;13.00;;;;;;;5.88;94.87;97149.53;5042837;28;20045;-66
2022/05/03 04:11:40;;;;;;;18.55;12.48;;;;;;;5.96;94.53;97157.28;5043998;28;20110;-66
2022/05/03 04:14:07;;;;;;;19.08;13.40;;;;;;;6.03;94.00;97160.75;5042972;28;20033;-66
2022/05/03 04:16:33;;;;;;;18.17;12.30;;;;;;;6.10;94.29;97161.50;5039135;28;20048;-66
2022/05/03 04:19:00;;;;;;;16.52;12.15;;;;;;;6.05;93.82;97169.38;5045685;28;20115;-66
2022/05/03 04:21:26;;;;;;;19.23;13.15;;;;;;;6.01;93.12;97165.50;5045567;28;20102;-66
2022/05/03 04:23:53;;;;;;;19.30;14.20;;;;;;;5.97;93.85;97167.03;5047104;28;20068;-66
2022/05/03 04:26:19;;;;;;;18.20;12.93;;;;;;;5.59;93.19;97166.22;5045843;28;20547;-67
2022/05/03 04:28:46;;;;;;;21.15;15.57;;;;;;;5.37;95.28;97171.22;5042255;28;20051;-66
2022/05/03 04:31:13;;;;;;;21.20;15.45;;;;;;;5.21;95.61;97176.94;5042403;28;20052;-65
2022/05/03 04:33:39;;;;;;;19.10;14.60;;;;;;;5.17;96.48;97174.94;5042086;28;20033;-66
2022/05/03 04:36:06;;;;;;;24.77;16.17;;;;;;;5.39;97.35;97179.88;5041647;28;20045;-67
2022/05/03 04:38:32;;;;;;;24.67;17.40;;;;;;;5.65;96.96;97186.00;5043446;28;20072;-66
2022/05/03 04:41:00;;;;;;;26.52;17.15;;;;;;;5.69;95.93;97185.34;5043466;28;20044;-65
2022/05/03 04:43:27;;;;;;;21.98;16.83;;;;;;;5.71;95.42;97180.53;5049025;28;20120;-68
2022/05/03 04:45:54;;;;;;;20.25;14.88;;;;;;;5.68;95.23;97196.31;5043318;28;20037;-67
2022/05/03 04:48:21;;;;;;;19.83;14.98;;;;;;;5.68;95.41;97190.94;5043938;28;20049;-67
2022/05/03 04:50:47;;;;;;;18.95;14.70;;;;;;;5.84;95.64;97193.00;5049240;28;20069;-68
2022/05/03 04:53:16;;;;;;;24.08;16.70;;;;;;;6.00;95.57;97193.41;5026505;28;20448;-67
2022/05/03 04:55:43;;;;;;;21.08;14.43;;;;;;;6.17;95.00;97192.81;5044532;28;20045;-68
2022/05/03 04:58:10;;;;;;;18.88;14.88;;;;;;;6.34;94.88;97193.00;5043219;28;20033;-67
2022/05/03 05:00:36;;;;;;;20.48;14.63;;;;;;;6.52;94.55;97183.25;5045730;28;20039;-69
2022/05/03 05:03:03;;;;;;;19.85;13.93;;;;;;;6.70;93.72;97187.69;5045502;28;20037;-68
2022/05/03 05:05:30;;;;;;;16.30;12.88;;;;;;;6.84;93.22;97193.69;5044862;28;20037;-68
2022/05/03 05:08:02;;;;;;;17.08;12.90;;;;;;;6.90;92.96;97190.09;5041334;28;20047;-68
2022/05/03 05:10:30;;;;;;;19.88;13.25;;;;;;;7.10;92.26;97187.03;5037619;28;20052;-69
2022/05/03 05:13:01;;;;;;;18.23;14.40;;;;;;;7.21;91.75;97192.66;5043360;28;20087;-68
2022/05/03 05:15:33;;;;;;;17.23;12.52;;;;;;;7.31;91.13;97184.00;5041363;28;20048;-69
2022/05/03 05:18:01;;;;;;;17.88;12.77;;;;;;;7.33;91.39;97188.09;5042802;28;20103;-67
2022/05/03 05:20:27;;;;;;;15.73;12.35;;;;;;;7.42;91.56;97192.06;5045820;28;20048;-69
2022/05/03 05:22:54;;;;;;;17.52;13.23;;;;;;;7.53;91.07;97190.41;5052279;28;20049;-68
2022/05/03 05:25:40;;;;;;;19.25;13.95;;;;;;;7.71;90.74;97187.81;5041811;28;20049;-68
2022/05/03 05:28:07;;;;;;;19.48;14.15;;;;;;;7.85;90.34;97191.84;5046188;28;20144;-69
2022/05/03 05:30:34;;;;;;;18.10;14.15;;;;;;;7.95;90.58;97199.34;5038082;28;20123;-67
2022/05/03 05:33:00;;;;;;;17.80;13.23;;;;;;;8.01;89.98;97198.41;5043197;28;20045;-67
2022/05/03 05:35:27;;;;;;;16.80;13.18;;;;;;;8.03;89.66;97195.44;5047199;28;20045;-69
2022/05/03 05:37:54;;;;;;;19.27;13.57;;;;;;;8.04;89.77;97197.09;5042965;28;20044;-69
2022/05/03 05:40:21;;;;;;;16.58;12.73;;;;;;;8.08;89.64;97198.25;5042115;28;20052;-66
2022/05/03 05:42:49;;;;;;;17.13;12.98;;;;;;;8.16;89.31;97205.13;5042682;28;20095;-68
2022/05/03 05:45:17;;;;;;;17.73;13.05;;;;;;;8.23;89.21;97200.44;5043072;28;20049;-68
2022/05/03 05:47:44;;;;;;;16.45;12.32;;;;;;;8.29;89.49;97202.16;5041216;28;20067;-68
2022/05/03 05:50:11;;;;;;;18.10;13.85;;;;;;;8.38;88.74;97202.59;5037855;28;20045;-68
2022/05/03 05:55:24;;;;;;;18.25;14.18;;;;;;;8.84;87.75;97201.75;5040614;28;20713;-68
2022/05/03 05:57:50;;;;;;;18.15;12.90;;;;;;;9.03;87.03;97207.72;5046745;28;20055;-69
2022/05/03 06:00:18;;;;;;;19.27;12.60;;;;;;;9.23;86.72;97204.56;5046902;28;20056;-67
2022/05/03 06:02:45;;;;;;;17.33;12.32;;;;;;;9.33;85.61;97205.78;5049999;28;20049;-68
2022/05/03 06:05:12;;;;;;;18.08;13.65;;;;;;;9.44;85.98;97199.41;5060616;28;20056;-68
2022/05/03 06:07:38;;;;;;;16.65;13.25;;;;;;;9.52;85.16;97198.19;5058952;28;20783;-68
2022/05/03 06:10:05;;;;;;;16.52;11.98;;;;;;;9.63;85.29;97204.56;5055752;28;20563;-68
2022/05/03 06:12:32;;;;;;;16.42;13.27;;;;;;;9.72;85.41;97204.94;5051604;28;20033;-67
2022/05/03 06:14:58;;;;;;;18.52;13.05;;;;;;;9.83;85.79;97206.69;5055166;28;20226;-69
2022/05/03 06:17:25;;;;;;;17.40;13.40;;;;;;;9.97;85.85;97207.16;5061351;28;20048;-68
2022/05/03 06:19:52;;;;;;;15.95;12.63;;;;;;;10.12;85.64;97208.38;5057666;28;20053;-68
2022/05/03 06:22:20;;;;;;;15.52;12.05;;;;;;;10.33;84.60;97205.91;5048770;28;20063;-69
2022/05/03 06:24:47;;;;;;;15.75;12.85;;;;;;;10.47;83.69;97207.16;5048926;28;20056;-67
2022/05/03 06:27:15;;;;;;;16.73;13.23;;;;;;;10.57;83.74;97208.38;5048972;28;20060;-69
2022/05/03 06:29:42;;;;;;;15.75;11.88;;;;;;;10.66;83.25;97202.19;5047649;28;20037;-68
2022/05/03 06:32:12;;;;;;;20.92;11.57;;;;;;;10.73;83.21;97206.59;5048130;28;20053;-69
2022/05/03 06:34:39;;;;;;;18.38;12.15;;;;;;;10.75;83.62;97210.69;5047709;28;20086;-68
2022/05/03 06:37:05;;;;;;;16.70;12.02;;;;;;;10.80;83.17;97213.44;5052770;28;20036;-67
2022/05/03 06:39:35;;;;;;;15.23;11.75;;;;;;;10.98;82.46;97207.91;5057266;28;20037;-68
2022/05/03 06:42:05;;;;;;;18.13;11.80;;;;;;;11.09;81.55;97206.88;5047715;28;20052;-68
2022/05/03 06:44:33;;;;;;;18.50;12.55;;;;;;;11.21;82.54;97206.72;5048082;28;20044;-68
2022/05/03 06:47:00;;;;;;;16.85;11.93;;;;;;;11.24;82.05;97211.59;5046819;28;20052;-68
2022/05/03 06:49:26;;;;;;;15.10;11.60;;;;;;;11.40;81.42;97217.16;5047225;28;20045;-68
2022/05/03 06:51:53;;;;;;;17.08;11.93;;;;;;;11.49;81.82;97214.75;5050485;28;20040;-68
2022/05/03 06:54:19;;;;;;;17.88;12.35;;;;;;;11.58;80.14;97208.56;5053245;28;20504;-68
2022/05/03 06:56:46;;;;;;;17.05;11.38;;;;;;;11.61;80.78;97206.44;5053120;28;20055;-68
2022/05/03 06:59:12;;;;;;;16.25;11.32;;;;;;;11.66;80.97;97214.59;5056583;28;20052;-68
2022/05/03 07:01:39;;;;;;;15.20;11.35;;;;;;;11.80;80.48;97210.31;5055717;28;20044;-68
2022/05/03 07:04:11;;;;;;;17.58;12.55;;;;;;;12.03;79.03;97207.44;5048623;28;20069;-67
2022/05/03 07:06:37;;;;;;;14.10;10.80;;;;;;;12.25;77.81;97209.97;5060609;28;20459;-68
2022/05/03 07:09:04;;;;;;;17.63;12.23;;;;;;;12.49;77.43;97209.47;5047870;28;20839;-69
2022/05/03 07:11:31;;;;;;;16.73;11.80;;;;;;;12.68;76.20;97214.41;5054915;28;20056;-68
2022/05/03 07:13:58;;;;;;;13.90;11.00;;;;;;;12.75;75.72;97223.94;5054333;28;20394;-67
2022/05/03 07:16:25;;;;;;;15.70;11.25;;;;;;;12.92;75.25;97233.72;5032713;28;20044;-68
2022/05/03 07:24:22;;;;;;;14.05;10.98;;;;;;;13.84;70.80;97239.38;5045440;28;20044;-69
2022/05/03 07:26:49;;;;;;;12.60;9.88;;;;;;;14.12;68.26;97237.09;5057614;28;20053;-69
2022/05/03 07:29:15;;;;;;;13.25;9.85;;;;;;;14.38;68.62;97226.06;5058416;28;20056;-68
2022/05/03 07:31:43;;;;;;;10.77;8.88;;;;;;;14.73;66.39;97231.59;5052360;28;20496;-67
2022/05/03 07:34:10;;;;;;;12.07;9.57;;;;;;;14.89;65.67;97235.06;5043843;28;20068;-68
2022/05/03 07:36:37;;;;;;;11.27;9.07;;;;;;;14.62;66.12;97235.50;5043964;28;20644;-53
2022/05/03 07:39:04;;;;;;;12.15;8.85;;;;;;;14.65;66.55;97238.47;5046521;28;20491;-55
2022/05/03 07:41:30;;;;;;;9.88;7.65;;;;;;;14.81;65.97;97241.94;5032580;28;20049;-53
2022/05/03 07:43:57;;;;;;;11.27;7.68;;;;;;;14.97;66.03;97232.84;5037487;28;20689;-55
2022/05/03 07:46:23;;;;;;;10.93;8.93;;;;;;;14.94;65.62;97239.69;5055464;28;20040;-53
2022/05/03 07:48:50;;;;;;;12.40;7.95;;;;;;;14.99;64.91;97244.25;5044812;28;20126;-53
2022/05/03 07:51:19;;;;;;;11.55;8.50;;;;;;;14.97;65.49;97243.75;5045667;28;20127;-54
2022/05/03 07:53:45;;;;;;;12.25;8.73;;;;;;;14.93;65.62;97249.75;5035432;28;20510;-54
2022/05/03 07:56:12;;;;;;;13.73;7.75;;;;;;;15.21;64.55;97252.00;5042425;28;20110;-54
2022/05/03 07:58:38;;;;;;;12.80;9.07;;;;;;;15.38;63.69;97248.06;5045035;28;20566;-53
2022/05/03 08:01:05;;;;;;;13.98;8.63;;;;;;;15.55;64.13;97253.91;5047379;28;20048;-55
2022/05/03 08:03:32;;;;;;;12.85;9.07;;;;;;;15.40;63.91;97254.84;5032564;28;20401;-52
2022/05/03 08:05:58;;;;;;;13.95;8.45;;;;;;;15.50;64.90;97253.94;5044009;28;20037;-53
2022/05/03 08:08:25;;;;;;;11.40;7.72;;;;;;;15.29;63.33;97256.06;5042095;28;20059;-54
2022/05/03 08:10:51;;;;;;;10.75;6.93;;;;;;;15.33;63.78;97248.91;5044785;28;20492;-52
2022/05/03 08:13:18;;;;;;;10.25;7.78;;;;;;;15.62;63.29;97256.28;5038287;28;20049;-56
2022/05/03 08:15:44;;;;;;;9.85;7.65;;;;;;;15.83;63.02;97256.09;5040155;28;20045;-56
2022/05/03 08:18:11;;;;;;;14.25;7.20;;;;;;;15.74;61.26;97253.97;5044145;28;20451;-54
2022/05/03 08:20:38;;;;;;;11.00;7.40;;;;;;;15.60;61.45;97258.50;5044376;28;20500;-55
2022/05/03 08:23:05;;;;;;;11.40;7.30;;;;;;;15.47;61.43;97258.06;5050950;28;20053;-52
2022/05/03 08:25:32;;;;;;;8.20;5.90;;;;;;;15.71;61.48;97264.69;5042603;28;20063;-53
2022/05/03 08:27:58;;;;;;;12.35;5.30;;;;;;;15.92;59.08;97265.25;5049442;28;20523;-57
2022/05/03 08:30:25;;;;;;;9.82;6.55;;;;;;;16.02;58.46;97260.81;5050530;28;20548;-51
2022/05/03 08:32:51;;;;;;;9.18;5.25;;;;;;;16.18;58.81;97265.00;5042167;28;20166;-56
2022/05/03 08:35:21;;;;;;;6.05;4.38;;;;;;;16.16;56.91;97266.41;5029439;28;20052;-55
2022/05/03 08:43:18;;;;;;;7.40;5.82;;;;;;;16.04;57.65;97264.91;5043530;28;20061;-55
2022/05/03 08:45:48;;;;;;;7.13;5.70;;;;;;;16.22;59.02;97267.97;5042840;28;20059;-49
2022/05/03 08:48:16;;;;;;;8.02;5.90;;;;;;;16.27;57.88;97269.81;5044124;28;20052;-55
2022/05/03 08:50:45;;;;;;;5.82;4.53;;;;;;;16.42;55.80;97274.28;5045273;28;20044;-56
2022/05/03 08:53:12;;;;;;;6.95;4.78;;;;;;;16.38;55.54;97274.88;5046138;28;20618;-56
2022/05/03 08:55:42;;;;;;;7.55;5.53;;;;;;;16.26;56.22;97271.75;5036341;28;20044;-53
2022/05/03 08:58:09;;;;;;;7.63;5.07;;;;;;;16.16;55.20;97274.59;5036846;28;20696;-56
2022/05/03 09:00:36;;;;;;;8.75;5.97;;;;;;;16.26;55.98;97266.28;5045414;28;20524;-55
2022/05/03 09:03:03;;;;;;;7.68;5.38;;;;;;;16.35;55.56;97272.72;5046852;28;20428;-55
2022/05/03 09:05:30;;;;;;;8.68;6.05;;;;;;;16.47;55.85;97279.72;5047937;28;20044;-69
2022/05/03 09:07:59;;;;;;;9.88;5.88;;;;;;;16.56;56.11;97268.91;5042865;28;20669;-68
2022/05/03 09:10:34;;;;;;;8.95;6.55;;;;;;;16.62;55.50;97267.75;5049350;28;20045;-69
2022/05/03 09:13:25;;;;;;;9.65;6.88;;;;;;;16.45;55.51;97269.06;5042983;28;20056;-68
2022/05/03 09:15:57;;;;;;;9.07;6.68;;;;;;;16.43;57.25;97274.00;5040112;28;20049;-70
2022/05/03 09:18:29;;;;;;;8.57;5.55;;;;;;;16.70;56.56;97264.34;5043670;28;20474;-67
2022/05/03 09:23:51;;;;;;;8.45;5.95;;;;;;;16.93;55.34;97261.03;5042601;28;20502;-66
2022/05/03 09:26:22;;;;;;;9.32;6.57;;;;;;;17.11;54.38;97268.44;5027876;28;20267;-70
2022/05/03 09:28:52;;;;;;;8.05;6.10;;;;;;;17.12;54.25;97271.97;5042998;28;20041;-70
2022/05/03 09:31:40;;;;;;;10.05;7.00;;;;;;;16.93;54.53;97270.03;5043678;28;20052;-65
2022/05/03 09:34:19;;;;;;;7.15;5.40;;;;;;;16.98;52.24;97269.13;5037497;28;20048;-67
2022/05/03 09:36:49;;;;;;;7.13;5.00;;;;;;;17.09;52.86;97276.13;5041104;28;20052;-65
2022/05/03 09:39:33;;;;;;;6.88;4.95;;;;;;;17.16;51.76;97264.81;5041784;28;20059;-63
2022/05/03 09:42:10;;;;;;;7.22;5.30;;;;;;;17.25;52.29;97262.22;5041876;28;20049;-62
2022/05/03 09:44:51;;;;;;;6.63;4.78;;;;;;;17.33;51.95;97263.44;5035192;28;20051;-63
2022/05/03 09:47:41;;;;;;;8.05;4.10;;;;;;;17.42;50.64;97261.66;5042590;28;20045;-63
2022/05/03 09:50:08;;;;;;;4.68;3.40;;;;;;;17.58;49.37;97264.94;5044725;28;20283;-63
2022/05/03 09:52:37;;;;;;;8.50;4.25;;;;;;;17.38;50.10;97266.09;5028137;28;20505;-63
2022/05/03 09:55:07;;;;;;;9.02;5.18;;;;;;;17.45;52.06;97269.25;5042574;28;20037;-63
2022/05/03 09:57:36;;;;;;;7.38;5.18;;;;;;;17.54;51.57;97263.91;5052006;28;20041;-64
2022/05/03 10:00:05;;;;;;;8.93;4.20;;;;;;;17.48;51.01;97263.19;5041791;28;20118;-66
2022/05/03 10:02:42;;;;;;;7.32;3.70;;;;;;;17.46;51.10;97257.19;5042033;28;20080;-65
2022/05/03 10:05:13;;;;;;;6.85;4.38;;;;;;;17.54;50.67;97261.16;5042618;28;20041;-66
2022/05/03 10:07:43;;;;;;;8.55;4.78;;;;;;;17.57;50.68;97263.31;5044116;28;20041;-65
2022/05/03 10:10:10;;;;;;;7.60;5.35;;;;;;;17.47;51.69;97256.06;5042104;28;20045;-65
2022/05/03 10:12:37;;;;;;;8.35;5.35;;;;;;;17.37;52.80;97257.09;5041530;28;20067;-65
2022/05/03 10:15:05;;;;;;;6.20;4.57;;;;;;;17.42;52.36;97251.53;5045053;28;20067;-67
2022/05/03 10:20:50;;;;;;;8.25;5.70;;;;;;;17.51;51.91;97245.38;5046567;28;20055;-65
2022/05/03 10:23:21;;;;;;;7.03;4.65;;;;;;;17.51;52.71;97242.63;5044190;28;20067;-65
2022/05/03 10:25:47;;;;;;;7.03;5.18;;;;;;;17.60;51.39;97246.28;5041645;28;20064;-65
2022/05/03 10:28:15;;;;;;;7.35;5.38;;;;;;;17.50;52.27;97243.72;5045884;28;20053;-65
2022/05/03 10:31:11;;;;;;;7.35;5.70;;;;;;;17.48;52.23;97240.47;5042437;28;20508;-65
2022/05/03 10:33:39;;;;;;;8.63;5.45;;;;;;;17.72;52.59;97228.56;5039525;28;20033;-65
2022/05/03 10:36:29;;;;;;;8.10;5.90;;;;;;;17.81;50.96;97241.22;5040566;28;20432;-65
2022/05/03 10:39:11;;;;;;;8.43;5.18;;;;;;;17.85;51.42;97232.41;5036126;28;20115;-65
2022/05/03 10:41:53;;;;;;;;;;;;;;;17.82;49.82;97225.63;5039556;28;20052;-65
2022/05/03 10:44:42;;;;;;;6.25;4.20;;;;;;;18.09;50.33;97220.50;5033542;28;19982;-65
2022/05/03 10:47:11;;;;;;;6.60;4.65;;;;;;;18.10;49.54;97225.69;5043730;28;20037;-65
2022/05/03 10:50:10;;;;;;;6.47;4.75;;;;;;;18.03;48.97;97231.50;5045363;28;20140;-65
2022/05/03 10:52:37;;;;;;;5.72;4.07;;;;;;;18.15;47.80;97220.09;5035919;28;20057;-70
2022/05/03 10:55:10;;;;;;;7.18;4.40;;;;;;;18.14;48.55;97218.44;5045849;28;20500;-65
2022/05/03 10:58:14;;;;;;;7.15;3.92;;;;;;;18.41;47.09;97224.19;5045072;28;20523;-64
2022/05/03 11:01:19;;;;;;;8.60;4.40;;;;;;;18.27;46.74;97216.81;5039504;28;20360;-60
2022/05/03 11:03:47;;;;;;;5.68;3.67;;;;;;;18.22;46.45;97211.44;5038736;28;20732;-67
2022/05/03 11:06:20;;;;;;;5.55;3.90;;;;;;;18.38;45.36;97205.63;5047781;28;20033;-63
2022/05/03 11:09:04;;;;;;;6.00;3.50;;;;;;;18.30;45.74;97210.72;5047643;28;20459;-64
2022/05/03 11:11:34;;;;;;;4.60;3.22;;;;;;;18.54;46.13;97204.16;5045917;28;20065;-64
2022/05/03 11:14:00;;;;;;;5.57;3.40;;;;;;;18.42;43.36;97206.63;5047222;28;20508;-64
2022/05/03 11:16:34;;;;;;;5.53;3.05;;;;;;;18.58;43.40;97201.63;5045892;28;20083;-64
2022/05/03 11:19:14;;;;;;;4.93;3.60;;;;;;;18.50;43.86;97208.66;5045761;28;20066;-64
2022/05/03 11:21:42;;;;;;;5.78;3.00;;;;;;;18.64;45.04;97197.66;5054294;28;20588;-65
2022/05/03 11:24:26;;;;;;;8.45;3.25;;;;;;;18.69;43.59;97197.53;5047931;28;20044;-65
2022/05/03 11:27:05;;;;;;;6.18;3.40;;;;;;;18.68;43.56;97192.34;5044834;28;20055;-64
2022/05/03 11:29:41;;;;;;;6.30;3.47;;;;;;;18.73;44.03;97186.75;5044268;28;20641;-64
2022/05/03 11:32:09;;;;;;;5.07;3.28;;;;;;;18.87;43.42;97191.38;5047671;28;20045;-64
2022/05/03 11:34:36;;;;;;;5.07;3.28;;;;;;;19.12;43.98;97187.22;5047697;28;20116;-64
2022/05/03 11:37:03;;;;;;;6.53;3.55;;;;;;;19.34;43.41;97178.16;5046327;28;20037;-65
2022/05/03 11:39:31;;;;;;;5.47;3.08;;;;;;;19.24;43.47;97173.75;5047283;28;20174;-64
2022/05/03 11:41:57;;;;;;;5.60;3.10;;;;;;;19.59;42.87;97166.81;5050266;28;20064;-64
2022/05/03 11:44:27;;;;;;;5.18;3.60;;;;;;;19.91;41.66;97175.81;5046916;28;20467;-64
2022/05/03 11:46:54;;;;;;;6.32;3.53;;;;;;;19.97;41.30;97163.53;5045213;28;20051;-64
2022/05/03 11:49:21;;;;;;;5.55;3.72;;;;;;;19.68;42.51;97169.59;5044100;28;20073;-64
2022/05/03 11:57:32;;;;;;;6.97;3.40;;;;;;;19.63;41.85;97173.28;5045361;28;20053;-66
2022/05/03 12:00:00;;;;;;;5.75;3.60;;;;;;;19.64;42.65;97169.41;5044759;28;20056;-64
2022/05/03 12:02:44;;;;;;;4.80;3.38;;;;;;;19.85;42.77;97172.41;5044475;28;20432;-64
2022/05/03 12:05:17;;;;;;;5.10;3.40;;;;;;;19.96;43.28;97161.13;5044382;28;20048;-64
2022/05/03 12:07:52;;;;;;;5.32;3.55;;;;;;;20.00;42.21;97162.94;5044589;28;20116;-65
2022/05/03 12:10:20;;;;;;;5.32;3.65;;;;;;;20.02;43.12;97154.38;5046532;28;20119;-64
2022/05/03 12:13:13;;;;;;;5.25;3.58;;;;;;;20.22;42.96;97157.63;5043699;28;20052;-64
2022/05/03 12:16:07;;;;;;;5.60;3.60;;;;;;;19.79;43.21;97154.44;5042856;28;20041;-64
2022/05/03 12:18:35;;;;;;;5.57;3.75;;;;;;;19.65;42.82;97162.81;5048048;28;20056;-64
2022/05/03 12:21:21;;;;;;;4.95;3.55;;;;;;;19.86;42.64;97152.03;5044330;28;20049;-64
2022/05/03 12:23:50;;;;;;;16.88;4.18;;;;;;;20.16;41.23;97150.69;5043243;28;20040;-64